sensor_id;sensor_type;location;lat;lon;timestamp;P1;durP1;ratioP1;P2;durP2;ratioP2
44139;SDS011;29803;51.048;4.686;2022-09-01T00:00:28;5.72;;;2.00;;
44139;SDS011;29803;51.048;4.686;2022-09-01T00:02:59;6.65;;;1.90;;
44139;SDS011;29803;51.048;4.686;2022-09-01T00:05:30;8.15;;;2.65;;
44139;SDS011;29803;51.048;4.686;2022-09-01T00:08:03;4.03;;;2.00;;
44139;SDS011;29803;51.048;4.686;2022-09-01T00:10:34;5.32;;;1.98;;
44139;SDS011;29803;51.048;4.686;2022-09-01T00:13:04;9.23;;;2.58;;
44139;SDS011;29803;51.048;4.686;2022-09-01T00:15:36;3.88;;;1.77;;
44139;SDS011;29803;51.048;4.686;2022-09-01T00:18:06;8.60;;;2.08;;
44139;SDS011;29803;51.048;4.686;2022-09-01T00:20:37;3.75;;;2.03;;
44139;SDS011;29803;51.048;4.686;2022-09-01T00:23:07;7.28;;;2.05;;
44139;SDS011;29803;51.048;4.686;2022-09-01T00:25:38;3.70;;;1.73;;
44139;SDS011;29803;51.048;4.686;2022-09-01T00:28:09;3.67;;;1.80;;
44139;SDS011;29803;51.048;4.686;2022-09-01T00:30:39;4.40;;;2.05;;
44139;SDS011;29803;51.048;4.686;2022-09-01T00:33:10;7.43;;;1.90;;
44139;SDS011;29803;51.048;4.686;2022-09-01T00:35:40;6.72;;;2.03;;
44139;SDS011;29803;51.048;4.686;2022-09-01T00:38:11;3.63;;;1.30;;
44139;SDS011;29803;51.048;4.686;2022-09-01T00:40:41;2.28;;;1.23;;
44139;SDS011;29803;51.048;4.686;2022-09-01T00:46:21;5.28;;;1.48;;
44139;SDS011;29803;51.048;4.686;2022-09-01T00:48:56;4.32;;;1.70;;
44139;SDS011;29803;51.048;4.686;2022-09-01T00:51:30;6.03;;;1.73;;
44139;SDS011;29803;51.048;4.686;2022-09-01T00:54:04;2.72;;;1.60;;
44139;SDS011;29803;51.048;4.686;2022-09-01T00:56:38;2.78;;;1.55;;
44139;SDS011;29803;51.048;4.686;2022-09-01T00:59:10;6.50;;;1.75;;
44139;SDS011;29803;51.048;4.686;2022-09-01T01:01:41;7.00;;;1.60;;
44139;SDS011;29803;51.048;4.686;2022-09-01T01:04:12;2.53;;;1.40;;
44139;SDS011;29803;51.048;4.686;2022-09-01T01:06:45;3.67;;;1.70;;
44139;SDS011;29803;51.048;4.686;2022-09-01T01:09:37;4.45;;;1.85;;
44139;SDS011;29803;51.048;4.686;2022-09-01T01:12:11;3.67;;;1.90;;
44139;SDS011;29803;51.048;4.686;2022-09-01T01:14:47;3.70;;;1.75;;
44139;SDS011;29803;51.048;4.686;2022-09-01T01:17:20;7.78;;;1.70;;
44139;SDS011;29803;51.048;4.686;2022-09-01T01:19:57;4.90;;;1.58;;
44139;SDS011;29803;51.048;4.686;2022-09-01T01:22:59;4.18;;;2.03;;
44139;SDS011;29803;51.048;4.686;2022-09-01T01:28:28;4.57;;;1.63;;
44139;SDS011;29803;51.048;4.686;2022-09-01T01:31:02;8.75;;;2.10;;
44139;SDS011;29803;51.048;4.686;2022-09-01T01:33:42;10.07;;;2.05;;
44139;SDS011;29803;51.048;4.686;2022-09-01T01:36:16;2.65;;;1.60;;
44139;SDS011;29803;51.048;4.686;2022-09-01T01:38:49;3.60;;;1.57;;
44139;SDS011;29803;51.048;4.686;2022-09-01T01:41:19;6.13;;;1.52;;
44139;SDS011;29803;51.048;4.686;2022-09-01T01:43:50;4.97;;;2.05;;
44139;SDS011;29803;51.048;4.686;2022-09-01T01:46:21;2.88;;;1.45;;
44139;SDS011;29803;51.048;4.686;2022-09-01T01:48:55;3.92;;;1.25;;
44139;SDS011;29803;51.048;4.686;2022-09-01T01:51:26;3.55;;;1.80;;
44139;SDS011;29803;51.048;4.686;2022-09-01T01:54:00;8.38;;;2.35;;
44139;SDS011;29803;51.048;4.686;2022-09-01T01:56:34;3.55;;;1.60;;
44139;SDS011;29803;51.048;4.686;2022-09-01T01:59:10;6.95;;;2.00;;
44139;SDS011;29803;51.048;4.686;2022-09-01T02:01:44;7.53;;;2.00;;
44139;SDS011;29803;51.048;4.686;2022-09-01T02:04:34;3.85;;;1.50;;
44139;SDS011;29803;51.048;4.686;2022-09-01T02:07:07;4.03;;;1.58;;
44139;SDS011;29803;51.048;4.686;2022-09-01T02:09:41;8.68;;;1.70;;
44139;SDS011;29803;51.048;4.686;2022-09-01T02:12:15;2.80;;;1.83;;
44139;SDS011;29803;51.048;4.686;2022-09-01T02:14:48;3.60;;;1.60;;
44139;SDS011;29803;51.048;4.686;2022-09-01T02:17:20;6.47;;;2.40;;
44139;SDS011;29803;51.048;4.686;2022-09-01T02:19:51;5.75;;;1.90;;
44139;SDS011;29803;51.048;4.686;2022-09-01T02:24:57;5.18;;;2.17;;
44139;SDS011;29803;51.048;4.686;2022-09-01T02:27:30;6.45;;;2.10;;
44139;SDS011;29803;51.048;4.686;2022-09-01T02:30:03;9.10;;;2.30;;
44139;SDS011;29803;51.048;4.686;2022-09-01T02:32:36;3.65;;;1.85;;
44139;SDS011;29803;51.048;4.686;2022-09-01T02:35:07;4.95;;;1.88;;
44139;SDS011;29803;51.048;4.686;2022-09-01T02:37:39;5.95;;;1.52;;
44139;SDS011;29803;51.048;4.686;2022-09-01T02:40:10;8.32;;;1.80;;
44139;SDS011;29803;51.048;4.686;2022-09-01T02:42:40;7.95;;;2.00;;
44139;SDS011;29803;51.048;4.686;2022-09-01T02:45:12;5.82;;;1.63;;
44139;SDS011;29803;51.048;4.686;2022-09-01T02:47:44;2.75;;;1.58;;
44139;SDS011;29803;51.048;4.686;2022-09-01T02:50:17;5.68;;;1.70;;
44139;SDS011;29803;51.048;4.686;2022-09-01T02:52:48;5.13;;;1.88;;
44139;SDS011;29803;51.048;4.686;2022-09-01T02:55:20;6.65;;;1.75;;
44139;SDS011;29803;51.048;4.686;2022-09-01T02:57:51;7.55;;;2.50;;
44139;SDS011;29803;51.048;4.686;2022-09-01T03:00:41;4.20;;;1.80;;
44139;SDS011;29803;51.048;4.686;2022-09-01T03:03:12;6.55;;;2.50;;
44139;SDS011;29803;51.048;4.686;2022-09-01T03:05:42;5.25;;;2.35;;
44139;SDS011;29803;51.048;4.686;2022-09-01T03:08:13;4.03;;;2.35;;
44139;SDS011;29803;51.048;4.686;2022-09-01T03:10:45;4.97;;;2.28;;
44139;SDS011;29803;51.048;4.686;2022-09-01T03:13:18;7.53;;;2.15;;
44139;SDS011;29803;51.048;4.686;2022-09-01T03:15:52;6.40;;;2.08;;
44139;SDS011;29803;51.048;4.686;2022-09-01T03:18:23;8.13;;;2.50;;
44139;SDS011;29803;51.048;4.686;2022-09-01T03:20:53;7.97;;;2.60;;
44139;SDS011;29803;51.048;4.686;2022-09-01T03:23:25;7.53;;;2.45;;
44139;SDS011;29803;51.048;4.686;2022-09-01T03:25:57;4.97;;;2.83;;
44139;SDS011;29803;51.048;4.686;2022-09-01T03:28:27;4.78;;;2.47;;
44139;SDS011;29803;51.048;4.686;2022-09-01T03:30:58;5.60;;;2.40;;
44139;SDS011;29803;51.048;4.686;2022-09-01T03:33:28;8.20;;;2.80;;
44139;SDS011;29803;51.048;4.686;2022-09-01T03:35:59;7.05;;;2.80;;
44139;SDS011;29803;51.048;4.686;2022-09-01T03:38:30;8.93;;;2.88;;
44139;SDS011;29803;51.048;4.686;2022-09-01T03:41:02;10.25;;;2.90;;
44139;SDS011;29803;51.048;4.686;2022-09-01T03:43:34;9.93;;;3.17;;
44139;SDS011;29803;51.048;4.686;2022-09-01T03:46:05;9.18;;;2.83;;
44139;SDS011;29803;51.048;4.686;2022-09-01T03:48:38;6.45;;;2.75;;
44139;SDS011;29803;51.048;4.686;2022-09-01T03:51:09;10.20;;;2.95;;
44139;SDS011;29803;51.048;4.686;2022-09-01T03:53:43;8.43;;;3.00;;
44139;SDS011;29803;51.048;4.686;2022-09-01T03:56:15;10.23;;;3.00;;
44139;SDS011;29803;51.048;4.686;2022-09-01T03:58:45;7.80;;;3.08;;
44139;SDS011;29803;51.048;4.686;2022-09-01T04:01:16;7.43;;;2.70;;
44139;SDS011;29803;51.048;4.686;2022-09-01T04:03:47;9.73;;;3.38;;
44139;SDS011;29803;51.048;4.686;2022-09-01T04:06:18;11.70;;;3.33;;
44139;SDS011;29803;51.048;4.686;2022-09-01T04:08:50;14.98;;;3.42;;
44139;SDS011;29803;51.048;4.686;2022-09-01T04:11:31;11.98;;;3.58;;
44139;SDS011;29803;51.048;4.686;2022-09-01T04:14:02;10.65;;;3.45;;
44139;SDS011;29803;51.048;4.686;2022-09-01T04:16:33;11.95;;;3.20;;
44139;SDS011;29803;51.048;4.686;2022-09-01T04:19:23;13.93;;;4.32;;
44139;SDS011;29803;51.048;4.686;2022-09-01T04:21:57;16.52;;;3.50;;
44139;SDS011;29803;51.048;4.686;2022-09-01T04:24:29;13.55;;;4.55;;
44139;SDS011;29803;51.048;4.686;2022-09-01T04:27:02;19.88;;;4.18;;
44139;SDS011;29803;51.048;4.686;2022-09-01T04:29:32;10.88;;;4.00;;
44139;SDS011;29803;51.048;4.686;2022-09-01T04:32:05;18.92;;;4.53;;
44139;SDS011;29803;51.048;4.686;2022-09-01T04:37:10;11.18;;;3.95;;
44139;SDS011;29803;51.048;4.686;2022-09-01T04:42:30;12.57;;;4.60;;
44139;SDS011;29803;51.048;4.686;2022-09-01T04:45:01;10.27;;;4.25;;
44139;SDS011;29803;51.048;4.686;2022-09-01T04:47:32;12.18;;;4.63;;
44139;SDS011;29803;51.048;4.686;2022-09-01T04:50:04;18.88;;;4.68;;
44139;SDS011;29803;51.048;4.686;2022-09-01T04:52:43;11.82;;;4.50;;
44139;SDS011;29803;51.048;4.686;2022-09-01T04:55:14;13.68;;;5.53;;
44139;SDS011;29803;51.048;4.686;2022-09-01T04:58:03;11.80;;;5.00;;
44139;SDS011;29803;51.048;4.686;2022-09-01T05:00:34;17.30;;;5.55;;
44139;SDS011;29803;51.048;4.686;2022-09-01T05:03:05;17.70;;;4.85;;
44139;SDS011;29803;51.048;4.686;2022-09-01T05:05:37;14.65;;;5.10;;
44139;SDS011;29803;51.048;4.686;2022-09-01T05:08:13;19.70;;;6.35;;
44139;SDS011;29803;51.048;4.686;2022-09-01T05:10:47;17.95;;;6.10;;
44139;SDS011;29803;51.048;4.686;2022-09-01T05:13:21;15.07;;;5.83;;
44139;SDS011;29803;51.048;4.686;2022-09-01T05:18:45;14.82;;;6.07;;
44139;SDS011;29803;51.048;4.686;2022-09-01T05:21:18;23.45;;;7.60;;
44139;SDS011;29803;51.048;4.686;2022-09-01T05:23:54;15.23;;;6.72;;
44139;SDS011;29803;51.048;4.686;2022-09-01T05:26:28;23.15;;;6.65;;
44139;SDS011;29803;51.048;4.686;2022-09-01T05:29:02;14.35;;;6.78;;
44139;SDS011;29803;51.048;4.686;2022-09-01T05:31:40;19.00;;;7.57;;
44139;SDS011;29803;51.048;4.686;2022-09-01T05:34:12;17.98;;;7.80;;
44139;SDS011;29803;51.048;4.686;2022-09-01T05:36:45;22.52;;;8.57;;
44139;SDS011;29803;51.048;4.686;2022-09-01T05:39:19;24.10;;;7.53;;
44139;SDS011;29803;51.048;4.686;2022-09-01T05:41:50;27.60;;;7.22;;
44139;SDS011;29803;51.048;4.686;2022-09-01T05:44:22;18.90;;;6.75;;
44139;SDS011;29803;51.048;4.686;2022-09-01T05:46:53;24.40;;;7.65;;
44139;SDS011;29803;51.048;4.686;2022-09-01T05:49:25;20.08;;;7.25;;
44139;SDS011;29803;51.048;4.686;2022-09-01T05:51:57;19.25;;;6.88;;
44139;SDS011;29803;51.048;4.686;2022-09-01T05:54:28;19.50;;;8.48;;
44139;SDS011;29803;51.048;4.686;2022-09-01T05:56:58;24.02;;;7.43;;
44139;SDS011;29803;51.048;4.686;2022-09-01T05:59:30;24.63;;;7.30;;
44139;SDS011;29803;51.048;4.686;2022-09-01T06:02:02;19.63;;;7.65;;
44139;SDS011;29803;51.048;4.686;2022-09-01T06:04:33;20.50;;;8.52;;
44139;SDS011;29803;51.048;4.686;2022-09-01T06:07:04;18.05;;;7.47;;
44139;SDS011;29803;51.048;4.686;2022-09-01T06:09:38;18.80;;;7.55;;
44139;SDS011;29803;51.048;4.686;2022-09-01T06:12:11;21.50;;;8.48;;
44139;SDS011;29803;51.048;4.686;2022-09-01T06:14:59;23.83;;;8.77;;
44139;SDS011;29803;51.048;4.686;2022-09-01T06:17:30;20.48;;;8.43;;
44139;SDS011;29803;51.048;4.686;2022-09-01T06:20:00;21.70;;;8.45;;
44139;SDS011;29803;51.048;4.686;2022-09-01T06:22:39;20.85;;;7.65;;
44139;SDS011;29803;51.048;4.686;2022-09-01T06:25:10;30.27;;;9.40;;
44139;SDS011;29803;51.048;4.686;2022-09-01T06:27:40;27.27;;;8.95;;
44139;SDS011;29803;51.048;4.686;2022-09-01T06:30:15;26.25;;;8.63;;
44139;SDS011;29803;51.048;4.686;2022-09-01T06:32:49;17.35;;;7.63;;
44139;SDS011;29803;51.048;4.686;2022-09-01T06:35:22;18.77;;;8.55;;
44139;SDS011;29803;51.048;4.686;2022-09-01T06:37:58;16.77;;;8.15;;
44139;SDS011;29803;51.048;4.686;2022-09-01T06:40:31;23.90;;;8.77;;
44139;SDS011;29803;51.048;4.686;2022-09-01T06:43:02;19.98;;;8.38;;
44139;SDS011;29803;51.048;4.686;2022-09-01T06:45:39;30.40;;;9.10;;
44139;SDS011;29803;51.048;4.686;2022-09-01T06:48:11;16.33;;;8.07;;
44139;SDS011;29803;51.048;4.686;2022-09-01T06:50:45;29.55;;;8.77;;
44139;SDS011;29803;51.048;4.686;2022-09-01T06:53:15;22.23;;;7.70;;
44139;SDS011;29803;51.048;4.686;2022-09-01T06:55:48;23.00;;;8.52;;
44139;SDS011;29803;51.048;4.686;2022-09-01T06:58:18;27.05;;;7.82;;
44139;SDS011;29803;51.048;4.686;2022-09-01T07:00:49;22.90;;;8.02;;
44139;SDS011;29803;51.048;4.686;2022-09-01T07:03:20;25.73;;;8.98;;
44139;SDS011;29803;51.048;4.686;2022-09-01T07:05:51;23.00;;;7.82;;
44139;SDS011;29803;51.048;4.686;2022-09-01T07:08:22;24.92;;;8.40;;
44139;SDS011;29803;51.048;4.686;2022-09-01T07:10:53;17.33;;;7.82;;
44139;SDS011;29803;51.048;4.686;2022-09-01T07:13:25;16.25;;;6.88;;
44139;SDS011;29803;51.048;4.686;2022-09-01T07:15:56;20.88;;;7.03;;
44139;SDS011;29803;51.048;4.686;2022-09-01T07:18:28;15.93;;;6.97;;
44139;SDS011;29803;51.048;4.686;2022-09-01T07:21:00;14.38;;;6.50;;
44139;SDS011;29803;51.048;4.686;2022-09-01T07:23:36;17.70;;;6.25;;
44139;SDS011;29803;51.048;4.686;2022-09-01T07:26:08;16.17;;;5.95;;
44139;SDS011;29803;51.048;4.686;2022-09-01T07:28:39;11.65;;;5.22;;
44139;SDS011;29803;51.048;4.686;2022-09-01T07:31:15;11.80;;;5.53;;
44139;SDS011;29803;51.048;4.686;2022-09-01T07:33:50;10.48;;;4.47;;
44139;SDS011;29803;51.048;4.686;2022-09-01T07:36:22;8.18;;;5.07;;
44139;SDS011;29803;51.048;4.686;2022-09-01T07:38:52;5.82;;;3.85;;
44139;SDS011;29803;51.048;4.686;2022-09-01T07:41:24;13.18;;;4.20;;
44139;SDS011;29803;51.048;4.686;2022-09-01T07:43:55;12.15;;;4.13;;
44139;SDS011;29803;51.048;4.686;2022-09-01T07:46:26;11.82;;;3.42;;
44139;SDS011;29803;51.048;4.686;2022-09-01T07:48:58;14.13;;;4.05;;
44139;SDS011;29803;51.048;4.686;2022-09-01T07:51:30;8.38;;;3.55;;
44139;SDS011;29803;51.048;4.686;2022-09-01T07:54:04;7.10;;;3.60;;
44139;SDS011;29803;51.048;4.686;2022-09-01T07:56:35;8.05;;;3.53;;
44139;SDS011;29803;51.048;4.686;2022-09-01T07:59:06;9.82;;;3.78;;
44139;SDS011;29803;51.048;4.686;2022-09-01T08:01:38;6.80;;;3.80;;
44139;SDS011;29803;51.048;4.686;2022-09-01T08:04:09;6.55;;;3.92;;
44139;SDS011;29803;51.048;4.686;2022-09-01T08:06:40;6.38;;;3.30;;
44139;SDS011;29803;51.048;4.686;2022-09-01T08:09:11;5.07;;;3.17;;
44139;SDS011;29803;51.048;4.686;2022-09-01T08:11:41;7.40;;;3.35;;
44139;SDS011;29803;51.048;4.686;2022-09-01T08:14:14;4.90;;;2.95;;
44139;SDS011;29803;51.048;4.686;2022-09-01T08:16:44;7.10;;;3.08;;
44139;SDS011;29803;51.048;4.686;2022-09-01T08:19:15;8.85;;;3.40;;
44139;SDS011;29803;51.048;4.686;2022-09-01T08:21:47;9.88;;;4.05;;
44139;SDS011;29803;51.048;4.686;2022-09-01T08:24:17;6.88;;;3.08;;
44139;SDS011;29803;51.048;4.686;2022-09-01T08:26:48;8.50;;;2.83;;
44139;SDS011;29803;51.048;4.686;2022-09-01T08:29:19;6.60;;;3.00;;
44139;SDS011;29803;51.048;4.686;2022-09-01T08:31:49;6.75;;;2.30;;
44139;SDS011;29803;51.048;4.686;2022-09-01T08:34:20;7.57;;;2.95;;
44139;SDS011;29803;51.048;4.686;2022-09-01T08:36:50;5.93;;;2.50;;
44139;SDS011;29803;51.048;4.686;2022-09-01T08:39:21;6.68;;;3.00;;
44139;SDS011;29803;51.048;4.686;2022-09-01T08:47:27;5.72;;;2.53;;
44139;SDS011;29803;51.048;4.686;2022-09-01T08:50:00;6.65;;;2.03;;
44139;SDS011;29803;51.048;4.686;2022-09-01T08:52:32;5.72;;;2.30;;
44139;SDS011;29803;51.048;4.686;2022-09-01T08:55:08;10.30;;;2.65;;
44139;SDS011;29803;51.048;4.686;2022-09-01T08:57:45;2.92;;;2.13;;
44139;SDS011;29803;51.048;4.686;2022-09-01T09:00:18;6.28;;;2.03;;
44139;SDS011;29803;51.048;4.686;2022-09-01T09:02:56;6.72;;;2.38;;
44139;SDS011;29803;51.048;4.686;2022-09-01T09:17:19;6.07;;;2.20;;
44139;SDS011;29803;51.048;4.686;2022-09-01T09:19:56;5.38;;;1.85;;
44139;SDS011;29803;51.048;4.686;2022-09-01T09:22:26;4.85;;;2.00;;
44139;SDS011;29803;51.048;4.686;2022-09-01T09:25:09;2.33;;;1.50;;
44139;SDS011;29803;51.048;4.686;2022-09-01T09:27:45;3.60;;;1.90;;
44139;SDS011;29803;51.048;4.686;2022-09-01T09:30:20;3.33;;;1.80;;
44139;SDS011;29803;51.048;4.686;2022-09-01T09:33:03;6.95;;;3.65;;
44139;SDS011;29803;51.048;4.686;2022-09-01T09:38:24;5.70;;;2.67;;
44139;SDS011;29803;51.048;4.686;2022-09-01T09:43:59;11.52;;;2.55;;
44139;SDS011;29803;51.048;4.686;2022-09-01T09:46:35;6.10;;;4.28;;
44139;SDS011;29803;51.048;4.686;2022-09-01T09:49:10;2.33;;;1.65;;
44139;SDS011;29803;51.048;4.686;2022-09-01T09:54:58;3.38;;;1.40;;
44139;SDS011;29803;51.048;4.686;2022-09-01T09:57:37;4.40;;;1.52;;
44139;SDS011;29803;51.048;4.686;2022-09-01T10:03:04;9.27;;;1.60;;
44139;SDS011;29803;51.048;4.686;2022-09-01T10:10:58;5.10;;;1.85;;
44139;SDS011;29803;51.048;4.686;2022-09-01T10:13:29;3.30;;;1.50;;
44139;SDS011;29803;51.048;4.686;2022-09-01T10:16:02;3.33;;;1.50;;
44139;SDS011;29803;51.048;4.686;2022-09-01T10:21:11;2.28;;;1.35;;
44139;SDS011;29803;51.048;4.686;2022-09-01T10:23:45;5.13;;;1.38;;
44139;SDS011;29803;51.048;4.686;2022-09-01T10:26:18;7.70;;;1.50;;
44139;SDS011;29803;51.048;4.686;2022-09-01T10:28:57;3.25;;;1.45;;
44139;SDS011;29803;51.048;4.686;2022-09-01T10:31:34;3.78;;;1.33;;
44139;SDS011;29803;51.048;4.686;2022-09-01T10:34:07;2.97;;;1.40;;
44139;SDS011;29803;51.048;4.686;2022-09-01T10:36:45;2.40;;;1.25;;
44139;SDS011;29803;51.048;4.686;2022-09-01T10:39:17;4.82;;;1.42;;
44139;SDS011;29803;51.048;4.686;2022-09-01T10:41:50;2.75;;;1.58;;
44139;SDS011;29803;51.048;4.686;2022-09-01T10:47:26;4.18;;;1.67;;
44139;SDS011;29803;51.048;4.686;2022-09-01T10:50:03;3.95;;;1.73;;
44139;SDS011;29803;51.048;4.686;2022-09-01T10:52:52;10.77;;;2.28;;
44139;SDS011;29803;51.048;4.686;2022-09-01T10:55:26;2.53;;;1.60;;
44139;SDS011;29803;51.048;4.686;2022-09-01T11:01:06;7.97;;;1.42;;
44139;SDS011;29803;51.048;4.686;2022-09-01T11:03:38;3.17;;;1.80;;
44139;SDS011;29803;51.048;4.686;2022-09-01T11:09:30;6.07;;;1.40;;
44139;SDS011;29803;51.048;4.686;2022-09-01T11:14:54;3.92;;;1.65;;
44139;SDS011;29803;51.048;4.686;2022-09-01T11:17:38;4.57;;;1.70;;
44139;SDS011;29803;51.048;4.686;2022-09-01T11:34:06;5.45;;;2.17;;
44139;SDS011;29803;51.048;4.686;2022-09-01T11:42:08;5.18;;;1.80;;
44139;SDS011;29803;51.048;4.686;2022-09-01T11:44:51;3.17;;;1.40;;
44139;SDS011;29803;51.048;4.686;2022-09-01T11:47:30;2.25;;;1.70;;
44139;SDS011;29803;51.048;4.686;2022-09-01T11:50:06;1.90;;;1.67;;
44139;SDS011;29803;51.048;4.686;2022-09-01T11:52:54;1.95;;;1.60;;
44139;SDS011;29803;51.048;4.686;2022-09-01T11:55:27;8.52;;;1.90;;
44139;SDS011;29803;51.048;4.686;2022-09-01T11:58:02;3.55;;;1.80;;
44139;SDS011;29803;51.048;4.686;2022-09-01T12:00:36;2.30;;;1.58;;
44139;SDS011;29803;51.048;4.686;2022-09-01T12:06:00;3.05;;;1.75;;
44139;SDS011;29803;51.048;4.686;2022-09-01T12:08:35;5.00;;;2.00;;
44139;SDS011;29803;51.048;4.686;2022-09-01T12:11:10;5.20;;;1.73;;
44139;SDS011;29803;51.048;4.686;2022-09-01T12:16:39;3.80;;;1.67;;
44139;SDS011;29803;51.048;4.686;2022-09-01T12:19:21;3.60;;;1.77;;
44139;SDS011;29803;51.048;4.686;2022-09-01T12:24:47;9.32;;;2.22;;
44139;SDS011;29803;51.048;4.686;2022-09-01T12:27:20;7.25;;;2.05;;
44139;SDS011;29803;51.048;4.686;2022-09-01T12:29:52;2.97;;;1.80;;
44139;SDS011;29803;51.048;4.686;2022-09-01T12:32:23;2.75;;;2.03;;
44139;SDS011;29803;51.048;4.686;2022-09-01T12:37:45;3.65;;;1.65;;
44139;SDS011;29803;51.048;4.686;2022-09-01T12:43:05;3.42;;;2.00;;
44139;SDS011;29803;51.048;4.686;2022-09-01T12:48:06;8.57;;;2.10;;
44139;SDS011;29803;51.048;4.686;2022-09-01T12:50:52;4.63;;;1.65;;
44139;SDS011;29803;51.048;4.686;2022-09-01T12:53:25;5.70;;;1.80;;
44139;SDS011;29803;51.048;4.686;2022-09-01T13:01:51;2.40;;;1.77;;
44139;SDS011;29803;51.048;4.686;2022-09-01T13:06:54;3.78;;;1.80;;
44139;SDS011;29803;51.048;4.686;2022-09-01T13:09:31;7.20;;;2.10;;
44139;SDS011;29803;51.048;4.686;2022-09-01T13:14:50;4.70;;;1.88;;
44139;SDS011;29803;51.048;4.686;2022-09-01T13:17:22;3.55;;;1.65;;
44139;SDS011;29803;51.048;4.686;2022-09-01T13:19:53;8.10;;;1.95;;
44139;SDS011;29803;51.048;4.686;2022-09-01T13:22:23;2.10;;;1.40;;
44139;SDS011;29803;51.048;4.686;2022-09-01T13:24:53;6.72;;;1.70;;
44139;SDS011;29803;51.048;4.686;2022-09-01T13:27:24;3.72;;;1.73;;
44139;SDS011;29803;51.048;4.686;2022-09-01T13:29:55;4.47;;;1.55;;
44139;SDS011;29803;51.048;4.686;2022-09-01T13:32:26;6.32;;;1.60;;
44139;SDS011;29803;51.048;4.686;2022-09-01T13:34:56;6.47;;;1.30;;
44139;SDS011;29803;51.048;4.686;2022-09-01T13:37:27;9.18;;;1.83;;
44139;SDS011;29803;51.048;4.686;2022-09-01T13:39:57;6.10;;;1.63;;
44139;SDS011;29803;51.048;4.686;2022-09-01T13:42:28;5.68;;;1.48;;
44139;SDS011;29803;51.048;4.686;2022-09-01T13:44:58;2.28;;;1.40;;
44139;SDS011;29803;51.048;4.686;2022-09-01T13:47:30;2.17;;;1.10;;
44139;SDS011;29803;51.048;4.686;2022-09-01T13:50:00;5.78;;;1.10;;
44139;SDS011;29803;51.048;4.686;2022-09-01T13:52:32;3.42;;;1.52;;
44139;SDS011;29803;51.048;4.686;2022-09-01T13:55:03;7.78;;;1.50;;
44139;SDS011;29803;51.048;4.686;2022-09-01T13:57:35;5.97;;;1.15;;
44139;SDS011;29803;51.048;4.686;2022-09-01T14:00:07;2.67;;;1.30;;
44139;SDS011;29803;51.048;4.686;2022-09-01T14:02:41;2.03;;;1.17;;
44139;SDS011;29803;51.048;4.686;2022-09-01T14:05:20;6.72;;;1.50;;
44139;SDS011;29803;51.048;4.686;2022-09-01T14:07:52;5.55;;;1.50;;
44139;SDS011;29803;51.048;4.686;2022-09-01T14:10:24;1.63;;;1.30;;
44139;SDS011;29803;51.048;4.686;2022-09-01T14:12:55;2.33;;;1.25;;
44139;SDS011;29803;51.048;4.686;2022-09-01T14:15:26;6.18;;;1.45;;
44139;SDS011;29803;51.048;4.686;2022-09-01T14:17:56;1.83;;;1.35;;
44139;SDS011;29803;51.048;4.686;2022-09-01T14:20:29;4.07;;;1.17;;
44139;SDS011;29803;51.048;4.686;2022-09-01T14:23:05;5.43;;;1.42;;
44139;SDS011;29803;51.048;4.686;2022-09-01T14:25:41;2.33;;;1.02;;
44139;SDS011;29803;51.048;4.686;2022-09-01T14:28:14;6.43;;;1.58;;
44139;SDS011;29803;51.048;4.686;2022-09-01T14:30:46;8.63;;;1.40;;
44139;SDS011;29803;51.048;4.686;2022-09-01T14:33:18;4.43;;;1.23;;
44139;SDS011;29803;51.048;4.686;2022-09-01T14:38:23;1.70;;;1.05;;
44139;SDS011;29803;51.048;4.686;2022-09-01T14:40:54;3.85;;;1.35;;
44139;SDS011;29803;51.048;4.686;2022-09-01T14:43:24;5.80;;;1.40;;
44139;SDS011;29803;51.048;4.686;2022-09-01T14:48:43;4.43;;;1.27;;
44139;SDS011;29803;51.048;4.686;2022-09-01T14:54:02;2.28;;;1.20;;
44139;SDS011;29803;51.048;4.686;2022-09-01T14:56:34;5.40;;;1.30;;
44139;SDS011;29803;51.048;4.686;2022-09-01T14:59:04;4.18;;;1.38;;
44139;SDS011;29803;51.048;4.686;2022-09-01T15:01:35;2.75;;;1.10;;
44139;SDS011;29803;51.048;4.686;2022-09-01T15:04:05;3.22;;;1.23;;
44139;SDS011;29803;51.048;4.686;2022-09-01T15:06:36;5.88;;;1.50;;
44139;SDS011;29803;51.048;4.686;2022-09-01T15:09:06;2.53;;;1.33;;
44139;SDS011;29803;51.048;4.686;2022-09-01T15:11:37;5.85;;;1.45;;
44139;SDS011;29803;51.048;4.686;2022-09-01T15:14:07;2.72;;;1.27;;
44139;SDS011;29803;51.048;4.686;2022-09-01T15:16:38;6.22;;;1.42;;
44139;SDS011;29803;51.048;4.686;2022-09-01T15:19:11;5.60;;;1.45;;
44139;SDS011;29803;51.048;4.686;2022-09-01T15:21:44;1.98;;;1.08;;
44139;SDS011;29803;51.048;4.686;2022-09-01T15:24:15;4.15;;;1.42;;
44139;SDS011;29803;51.048;4.686;2022-09-01T15:26:48;4.13;;;1.13;;
44139;SDS011;29803;51.048;4.686;2022-09-01T15:29:18;3.15;;;1.40;;
44139;SDS011;29803;51.048;4.686;2022-09-01T15:31:49;3.90;;;1.30;;
44139;SDS011;29803;51.048;4.686;2022-09-01T15:34:19;8.85;;;1.58;;
44139;SDS011;29803;51.048;4.686;2022-09-01T15:36:50;3.13;;;1.45;;
44139;SDS011;29803;51.048;4.686;2022-09-01T15:39:20;3.80;;;1.40;;
44139;SDS011;29803;51.048;4.686;2022-09-01T15:41:51;3.17;;;1.20;;
44139;SDS011;29803;51.048;4.686;2022-09-01T15:44:22;4.35;;;1.50;;
44139;SDS011;29803;51.048;4.686;2022-09-01T15:46:53;4.22;;;1.58;;
44139;SDS011;29803;51.048;4.686;2022-09-01T15:49:23;2.05;;;1.20;;
44139;SDS011;29803;51.048;4.686;2022-09-01T15:51:54;3.47;;;1.10;;
44139;SDS011;29803;51.048;4.686;2022-09-01T15:54:26;4.30;;;1.60;;
44139;SDS011;29803;51.048;4.686;2022-09-01T15:56:57;4.40;;;1.00;;
44139;SDS011;29803;51.048;4.686;2022-09-01T15:59:27;2.65;;;1.30;;
44139;SDS011;29803;51.048;4.686;2022-09-01T16:01:58;3.58;;;1.77;;
44139;SDS011;29803;51.048;4.686;2022-09-01T16:04:28;1.75;;;1.15;;
44139;SDS011;29803;51.048;4.686;2022-09-01T16:06:59;4.20;;;1.20;;
44139;SDS011;29803;51.048;4.686;2022-09-01T16:09:29;4.82;;;1.70;;
44139;SDS011;29803;51.048;4.686;2022-09-01T16:12:00;5.32;;;1.35;;
44139;SDS011;29803;51.048;4.686;2022-09-01T16:14:31;5.47;;;1.30;;
44139;SDS011;29803;51.048;4.686;2022-09-01T16:17:03;1.92;;;1.30;;
44139;SDS011;29803;51.048;4.686;2022-09-01T16:22:26;5.40;;;1.25;;
44139;SDS011;29803;51.048;4.686;2022-09-01T16:25:05;2.35;;;1.10;;
44139;SDS011;29803;51.048;4.686;2022-09-01T16:27:43;6.65;;;1.55;;
44139;SDS011;29803;51.048;4.686;2022-09-01T16:30:18;4.78;;;1.42;;
44139;SDS011;29803;51.048;4.686;2022-09-01T16:32:52;6.72;;;1.50;;
44139;SDS011;29803;51.048;4.686;2022-09-01T16:35:26;3.75;;;1.15;;
44139;SDS011;29803;51.048;4.686;2022-09-01T16:38:24;1.60;;;1.27;;
44139;SDS011;29803;51.048;4.686;2022-09-01T16:43:56;4.40;;;1.20;;
44139;SDS011;29803;51.048;4.686;2022-09-01T16:46:36;4.07;;;1.10;;
44139;SDS011;29803;51.048;4.686;2022-09-01T17:03:55;2.25;;;1.40;;
44139;SDS011;29803;51.048;4.686;2022-09-01T17:06:56;2.45;;;1.20;;
44139;SDS011;29803;51.048;4.686;2022-09-01T17:12:37;1.90;;;1.23;;
44139;SDS011;29803;51.048;4.686;2022-09-01T17:15:15;3.13;;;1.13;;
44139;SDS011;29803;51.048;4.686;2022-09-01T17:17:54;3.08;;;1.50;;
44139;SDS011;29803;51.048;4.686;2022-09-01T17:20:33;3.30;;;1.35;;
44139;SDS011;29803;51.048;4.686;2022-09-01T17:23:08;4.53;;;1.45;;
44139;SDS011;29803;51.048;4.686;2022-09-01T17:28:35;6.18;;;1.63;;
44139;SDS011;29803;51.048;4.686;2022-09-01T17:36:35;4.72;;;1.40;;
44139;SDS011;29803;51.048;4.686;2022-09-01T17:42:30;4.35;;;2.10;;
44139;SDS011;29803;51.048;4.686;2022-09-01T17:53:52;8.32;;;1.60;;
44139;SDS011;29803;51.048;4.686;2022-09-01T17:59:52;3.75;;;1.60;;
44139;SDS011;29803;51.048;4.686;2022-09-01T18:10:37;3.10;;;1.50;;
44139;SDS011;29803;51.048;4.686;2022-09-01T18:16:16;2.00;;;1.35;;
44139;SDS011;29803;51.048;4.686;2022-09-01T18:18:50;2.60;;;1.25;;
44139;SDS011;29803;51.048;4.686;2022-09-01T18:21:23;2.38;;;1.52;;